Авиационная погода в Атырау

Регион: 
Погода METAR: 
UATG 222100Z 11006MPS 5000 BR BKN048 M10/M12 Q1024 NOSIG RMK QFE770/1027
Время наблюдения
2022-01-22T21:00:00Z
Температура C
-10.0
Точка росы
-12.0
Направление ветра
110
Скорость ветра (узлы)
12
Метео видимость
3.11
Облачность
BKN
Нижняя граница облачности (футы)
4800
Явления погоды
BR
Условия полета
MVFR
BKN – значительная (рассеянная, разорванная) облачность;
BR – дымка (видимость от 1 до 9 км);